Time;durP1;ratioP1;P1;durP2;ratioP2;P2;SDS_P1;SDS_P2;PMS_P1;PMS_P2;Temp;Humidity;BMP_temperature;BMP_pressure;BME280_temperature;BME280_humidity;BME280_pressure;Samples;Min_cycle;Max_cycle;Signal;HPM_P1;HPM_P2
2022/10/05 00:00:46;;;;;;;10.40;6.33;;;;;;;22.72;100.00;101582.72;5002688;28;20031;-54
2022/10/05 00:03:11;;;;;;;12.00;6.30;;;;;;;22.71;100.00;101575.63;4994216;28;20030;-52
2022/10/05 00:05:38;;;;;;;12.68;5.47;;;;;;;22.57;100.00;101567.03;5013870;28;20039;-52
2022/10/05 00:08:09;;;;;;;14.05;6.38;;;;;;;22.63;100.00;101557.03;5014012;28;20041;-55
2022/10/05 00:10:37;;;;;;;12.23;6.20;;;;;;;22.49;100.00;101562.06;4991280;28;20035;-52
2022/10/05 00:13:10;;;;;;;12.67;7.00;;;;;;;22.42;100.00;101556.81;5004435;28;20058;-54
2022/10/05 00:15:35;;;;;;;14.00;6.73;;;;;;;22.55;100.00;101552.03;5010050;28;20034;-54
2022/10/05 00:18:08;;;;;;;10.10;6.33;;;;;;;22.53;100.00;101560.47;5028807;28;20281;-55
2022/10/05 00:20:34;;;;;;;13.97;6.77;;;;;;;22.63;100.00;101548.84;4995892;28;20122;-52
2022/10/05 00:23:03;;;;;;;11.90;6.07;;;;;;;22.33;100.00;101552.88;5002852;28;20033;-55
2022/10/05 00:25:28;;;;;;;17.43;6.30;;;;;;;22.72;100.00;101555.44;5008095;28;20035;-55
2022/10/05 00:27:59;;;;;;;15.48;6.00;;;;;;;22.52;100.00;101552.53;5003405;28;20030;-55
2022/10/05 00:30:31;;;;;;;12.73;6.50;;;;;;;22.72;100.00;101550.00;5001384;28;20035;-55
2022/10/05 00:32:56;;;;;;;14.67;6.70;;;;;;;22.59;100.00;101555.88;4992805;28;20042;-54
2022/10/05 00:35:22;;;;;;;9.60;6.63;;;;;;;22.73;100.00;101561.75;5003974;28;20040;-53
2022/10/05 00:37:53;;;;;;;16.13;6.95;;;;;;;23.01;100.00;101557.03;5010780;28;20033;-56
2022/10/05 00:40:34;;;;;;;15.37;7.00;;;;;;;22.82;100.00;101551.16;4997245;28;20050;-53
2022/10/05 00:43:29;;;;;;;17.17;6.07;;;;;;;23.28;100.00;101556.94;5009380;28;20047;-54
2022/10/05 00:46:06;;;;;;;13.87;7.20;;;;;;;22.67;100.00;101558.13;4998626;28;20037;-54
2022/10/05 00:48:43;;;;;;;10.85;6.15;;;;;;;22.52;100.00;101547.94;5009637;28;20038;-54
2022/10/05 00:51:17;;;;;;;;;;;;;;;22.58;100.00;101551.50;4991148;28;20055;-51
2022/10/05 00:54:16;;;;;;;13.80;5.93;;;;;;;22.77;100.00;101541.03;5001978;28;19949;-53
2022/10/05 00:57:27;;;;;;;14.63;6.83;;;;;;;22.09;100.00;101536.84;5004055;28;20258;-54
2022/10/05 01:00:16;;;;;;;11.37;6.90;;;;;;;22.14;100.00;101533.38;4928015;28;20107;-54
2022/10/05 01:02:51;;;;;;;16.10;6.43;;;;;;;22.62;100.00;101533.56;4929204;28;20036;-55
2022/10/05 01:05:44;;;;;;;15.63;7.03;;;;;;;22.34;100.00;101527.28;4975832;28;20038;-51
2022/10/05 01:08:31;;;;;;;14.50;7.60;;;;;;;22.32;100.00;101532.16;5005992;28;20266;-51
2022/10/05 01:11:08;;;;;;;19.48;7.45;;;;;;;22.54;100.00;101528.56;4995923;28;20058;-54
2022/10/05 01:13:59;;;;;;;12.33;7.00;;;;;;;22.30;100.00;101526.16;4998862;28;20025;-54
2022/10/05 01:16:54;;;;;;;13.33;6.60;;;;;;;22.34;100.00;101528.13;4996306;28;20277;-55
2022/10/05 01:19:28;;;;;;;14.53;7.67;;;;;;;22.51;100.00;101526.38;5017779;28;20261;-53
2022/10/05 01:22:08;;;;;;;14.07;7.43;;;;;;;23.14;100.00;101526.53;5002668;28;20030;-53
2022/10/05 01:25:07;;;;;;;17.37;7.80;;;;;;;22.59;100.00;101517.72;4998329;28;20034;-53
2022/10/05 01:27:37;;;;;;;12.87;7.33;;;;;;;22.34;100.00;101519.09;5001878;28;20027;-53
2022/10/05 01:30:16;;;;;;;13.37;7.37;;;;;;;22.63;100.00;101510.69;5001496;28;20280;-55
2022/10/05 01:32:59;;;;;;;15.57;7.97;;;;;;;22.51;100.00;101515.47;5000707;28;20031;-55
2022/10/05 01:35:55;;;;;;;14.10;7.70;;;;;;;22.55;100.00;101508.41;5019508;28;20031;-51
2022/10/05 01:38:45;;;;;;;12.27;7.03;;;;;;;22.55;100.00;101500.25;5013725;28;20287;-52
2022/10/05 01:41:33;;;;;;;16.03;8.57;;;;;;;22.67;100.00;101495.44;4995567;28;20035;-53
2022/10/05 01:44:13;;;;;;;13.40;7.93;;;;;;;22.29;100.00;101497.28;4998461;28;20281;-53
2022/10/05 01:46:49;;;;;;;21.63;8.27;;;;;;;22.31;100.00;101473.31;4995516;28;20046;-51
2022/10/05 01:49:36;;;;;;;12.35;7.53;;;;;;;22.70;100.00;101469.53;5012852;28;20058;-56
2022/10/05 01:52:34;;;;;;;16.67;7.10;;;;;;;22.20;100.00;101462.34;4975353;28;20067;-53
2022/10/05 01:55:18;;;;;;;11.23;6.63;;;;;;;22.19;100.00;101457.97;4990632;28;20031;-54
2022/10/05 01:58:05;;;;;;;22.13;8.47;;;;;;;21.89;100.00;101456.59;4965507;28;20046;-51
2022/10/05 02:00:53;;;;;;;15.70;7.93;;;;;;;21.81;100.00;101454.34;4986621;28;20035;-53
2022/10/05 02:03:34;;;;;;;18.63;7.67;;;;;;;22.10;100.00;101459.50;4989322;28;20271;-53
2022/10/05 02:06:08;;;;;;;17.57;8.07;;;;;;;21.81;100.00;101451.63;4992092;28;20290;-54
2022/10/05 02:08:39;;;;;;;18.07;8.17;;;;;;;22.36;100.00;101448.81;4981323;28;20285;-52
2022/10/05 02:11:16;;;;;;;11.27;8.00;;;;;;;22.22;100.00;101451.16;4987597;28;20288;-55
2022/10/05 02:13:54;;;;;;;15.67;8.00;;;;;;;22.04;100.00;101444.22;4973185;28;20281;-54
2022/10/05 02:16:36;;;;;;;17.20;8.23;;;;;;;21.81;100.00;101437.19;5001277;28;20348;-53
2022/10/05 02:19:13;;;;;;;18.33;8.70;;;;;;;22.12;100.00;101432.81;4980688;28;20281;-55
2022/10/05 02:21:45;;;;;;;18.53;8.57;;;;;;;21.91;100.00;101426.38;4981357;28;20268;-54
2022/10/05 02:24:23;;;;;;;18.90;8.50;;;;;;;21.56;100.00;101420.28;4992214;28;20687;-54
2022/10/05 02:26:52;;;;;;;17.70;9.73;;;;;;;21.99;100.00;101428.63;4979898;28;20290;-53
2022/10/05 02:29:23;;;;;;;14.97;8.23;;;;;;;21.53;100.00;101418.09;4977941;28;20357;-52
2022/10/05 02:31:59;;;;;;;18.40;8.93;;;;;;;21.27;100.00;101423.25;4968288;28;20262;-55
2022/10/05 02:34:36;;;;;;;15.57;8.77;;;;;;;21.38;100.00;101417.91;4992354;28;20267;-52
2022/10/05 02:37:31;;;;;;;15.93;7.80;;;;;;;21.47;100.00;101406.31;4991722;28;20280;-55
2022/10/05 02:40:04;;;;;;;14.30;8.30;;;;;;;21.86;100.00;101413.53;4985381;28;20289;-51
2022/10/05 02:42:51;;;;;;;17.90;8.83;;;;;;;21.44;100.00;101404.13;4977383;28;20300;-54
2022/10/05 02:45:35;;;;;;;19.03;8.17;;;;;;;21.33;100.00;101399.63;4967321;28;20289;-52
2022/10/05 02:48:18;;;;;;;16.60;9.27;;;;;;;21.46;100.00;101401.16;4983142;28;20269;-53
2022/10/05 02:50:57;;;;;;;16.90;8.33;;;;;;;21.99;100.00;101395.16;4986392;28;20285;-53
2022/10/05 02:53:34;;;;;;;17.40;8.80;;;;;;;21.30;100.00;101390.09;4989597;28;20272;-52
2022/10/05 02:56:17;;;;;;;17.52;8.48;;;;;;;21.58;100.00;101409.16;5012161;28;20281;-54
2022/10/05 02:58:58;;;;;;;18.70;9.57;;;;;;;21.99;100.00;101408.75;5005340;28;20035;-55
2022/10/05 03:01:34;;;;;;;17.83;9.43;;;;;;;21.75;100.00;101409.91;5025170;28;20274;-55
2022/10/05 03:04:39;;;;;;;16.38;8.63;;;;;;;21.29;100.00;101410.19;5003095;28;20319;-54
2022/10/05 03:07:22;;;;;;;18.37;8.10;;;;;;;21.55;100.00;101391.44;4990619;28;20050;-52
2022/10/05 03:10:03;;;;;;;19.43;8.30;;;;;;;21.45;100.00;101402.19;5010045;28;20303;-54
2022/10/05 03:12:51;;;;;;;18.60;8.63;;;;;;;21.66;100.00;101395.13;5057231;28;20277;-52
2022/10/05 03:15:40;;;;;;;14.13;8.53;;;;;;;21.34;100.00;101388.50;5007745;28;20318;-55
2022/10/05 03:18:32;;;;;;;19.38;9.43;;;;;;;20.92;100.00;101383.63;5004857;28;20264;-54
2022/10/05 03:21:27;;;;;;;21.20;10.27;;;;;;;21.45;100.00;101388.59;4988700;28;20039;-50
2022/10/05 03:23:56;;;;;;;22.10;12.17;;;;;;;21.27;100.00;101387.03;5011816;28;20265;-55
2022/10/05 03:26:44;;;;;;;20.73;10.33;;;;;;;20.59;100.00;101386.16;5001837;28;20288;-49
2022/10/05 03:29:26;;;;;;;17.27;10.57;;;;;;;20.83;100.00;101385.16;5000480;28;20332;-52
2022/10/05 03:32:28;;;;;;;20.47;10.63;;;;;;;20.90;100.00;101385.78;5005581;28;20379;-51
2022/10/05 03:35:01;;;;;;;20.47;10.60;;;;;;;20.63;100.00;101400.88;5004511;28;20788;-53
2022/10/05 03:37:42;;;;;;;15.80;8.93;;;;;;;20.61;100.00;101389.44;4997620;28;20337;-55
2022/10/05 03:40:28;;;;;;;19.17;10.47;;;;;;;20.92;100.00;101384.47;4985482;28;20295;-54
2022/10/05 03:43:25;;;;;;;17.17;9.25;;;;;;;21.51;100.00;101405.81;4998645;28;20273;-54
2022/10/05 03:46:12;;;;;;;20.77;8.47;;;;;;;21.39;100.00;101398.63;5013121;28;20047;-53
2022/10/05 03:48:50;;;;;;;13.35;6.70;;;;;;;21.45;100.00;101396.75;5001441;28;20305;-54
2022/10/05 03:51:30;;;;;;;14.30;6.93;;;;;;;21.58;100.00;101396.38;5019031;28;20074;-55
2022/10/05 03:54:01;;;;;;;12.77;6.23;;;;;;;21.73;100.00;101400.38;5004502;28;20316;-54
2022/10/05 03:56:39;;;;;;;10.63;5.83;;;;;;;21.64;100.00;101386.38;5011061;28;20289;-54
2022/10/05 03:59:15;;;;;;;11.00;5.40;;;;;;;21.73;100.00;101397.63;4978636;28;20795;-52
2022/10/05 04:01:50;;;;;;;9.23;4.90;;;;;;;21.55;100.00;101394.16;4996584;28;20328;-54
2022/10/05 04:04:25;;;;;;;16.63;5.07;;;;;;;21.82;100.00;101385.19;5012172;28;20027;-54
2022/10/05 04:06:54;;;;;;;10.07;5.87;;;;;;;21.98;100.00;101394.31;4990309;28;20031;-54
2022/10/05 04:09:26;;;;;;;8.20;5.10;;;;;;;21.65;100.00;101395.38;5006955;28;20035;-56
2022/10/05 04:12:02;;;;;;;12.47;5.30;;;;;;;22.01;100.00;101395.72;5002245;28;20031;-54
2022/10/05 04:14:35;;;;;;;14.13;5.83;;;;;;;21.74;100.00;101385.66;4998271;28;20275;-51
2022/10/05 04:17:08;;;;;;;9.73;5.10;;;;;;;22.24;100.00;101391.00;5015103;28;20039;-53
2022/10/05 04:19:37;;;;;;;9.30;5.13;;;;;;;22.08;100.00;101379.97;5019193;28;20081;-54
2022/10/05 04:22:17;;;;;;;9.77;5.33;;;;;;;21.69;100.00;101380.19;4996206;28;20113;-52
2022/10/05 04:24:48;;;;;;;9.40;5.60;;;;;;;21.42;100.00;101378.22;4984007;28;20307;-54
2022/10/05 04:27:26;;;;;;;14.13;5.20;;;;;;;21.42;100.00;101373.63;5001452;28;20478;-51
2022/10/05 04:29:55;;;;;;;10.07;5.30;;;;;;;21.57;100.00;101372.94;5003144;28;20058;-50
2022/10/05 04:32:45;;;;;;;10.33;4.90;;;;;;;21.45;100.00;101361.38;5003439;28;20285;-56
2022/10/05 04:35:33;;;;;;;8.27;4.57;;;;;;;21.72;100.00;101369.59;4982757;28;20103;-50
2022/10/05 04:38:10;;;;;;;10.20;4.70;;;;;;;21.67;100.00;101366.81;5018329;28;20280;-52
2022/10/05 04:40:55;;;;;;;13.60;4.57;;;;;;;21.79;100.00;101363.94;4979622;28;20038;-54
2022/10/05 04:43:36;;;;;;;10.30;5.10;;;;;;;21.48;100.00;101363.63;5006962;28;20263;-54
2022/10/05 04:46:28;;;;;;;10.43;4.97;;;;;;;21.27;100.00;101351.69;5035971;28;20288;-55
2022/10/05 04:49:12;;;;;;;10.87;5.23;;;;;;;21.25;100.00;101351.97;5022568;28;20033;-55
2022/10/05 04:52:22;;;;;;;11.30;5.50;;;;;;;20.87;100.00;101356.38;5000790;28;20056;-50
2022/10/05 04:55:01;;;;;;;16.17;6.23;;;;;;;21.48;100.00;101353.53;4974987;28;20027;-53
2022/10/05 04:57:37;;;;;;;10.33;6.13;;;;;;;21.49;100.00;101347.03;4988513;28;20023;-53
2022/10/05 05:00:19;;;;;;;11.40;6.37;;;;;;;21.74;100.00;101353.81;4969205;29;20550;-54
2022/10/05 05:03:08;;;;;;;13.77;6.80;;;;;;;21.25;100.00;101348.41;4970588;28;20265;-54
2022/10/05 05:06:04;;;;;;;13.47;6.57;;;;;;;21.54;100.00;101351.69;4983127;28;20361;-55
2022/10/05 05:09:04;;;;;;;15.17;7.93;;;;;;;21.52;100.00;101339.41;4972627;28;20262;-54
2022/10/05 05:12:02;;;;;;;16.37;7.60;;;;;;;21.42;100.00;101346.41;4970537;28;20277;-52
2022/10/05 05:14:45;;;;;;;16.10;8.07;;;;;;;21.43;100.00;101347.22;4970297;29;20050;-53
2022/10/05 05:17:32;;;;;;;15.90;8.17;;;;;;;21.23;100.00;101345.94;4992435;28;20352;-54
2022/10/05 05:20:21;;;;;;;15.53;8.17;;;;;;;21.38;100.00;101341.72;4982938;28;20316;-53
2022/10/05 05:23:10;;;;;;;15.37;7.97;;;;;;;20.98;100.00;101341.84;4972303;28;20273;-53
2022/10/05 05:25:50;;;;;;;14.13;7.40;;;;;;;20.95;100.00;101339.63;4979337;28;20288;-51
2022/10/05 05:28:26;;;;;;;14.90;7.70;;;;;;;21.05;100.00;101330.78;4980689;28;20299;-52
2022/10/05 05:31:04;;;;;;;14.33;7.73;;;;;;;20.75;100.00;101335.53;4972581;28;20266;-54
2022/10/05 05:33:47;;;;;;;13.63;7.63;;;;;;;20.47;100.00;101341.97;4972340;28;20342;-56
2022/10/05 05:36:33;;;;;;;12.53;7.73;;;;;;;20.70;100.00;101327.31;4972324;28;20064;-51
2022/10/05 05:39:22;;;;;;;13.67;7.73;;;;;;;21.18;100.00;101321.41;4972245;28;20281;-57
2022/10/05 05:41:49;;;;;;;13.80;8.50;;;;;;;20.95;100.00;101333.38;4971621;28;20278;-54
2022/10/05 05:44:23;;;;;;;15.75;8.82;;;;;;;20.96;100.00;101330.41;5012182;28;20336;-54
2022/10/05 05:46:54;;;;;;;17.87;9.73;;;;;;;20.42;100.00;101333.75;5001852;28;20042;-58
2022/10/05 05:49:28;;;;;;;17.10;9.67;;;;;;;21.47;100.00;101329.34;5002899;28;20040;-51
2022/10/05 05:52:03;;;;;;;16.57;8.20;;;;;;;21.23;100.00;101335.06;5015329;28;20349;-52
2022/10/05 05:54:38;;;;;;;13.03;7.67;;;;;;;21.12;100.00;101334.13;5055392;28;20025;-52
2022/10/05 05:57:29;;;;;;;12.07;7.37;;;;;;;20.56;100.00;101329.59;5058126;28;20322;-53
2022/10/05 06:00:26;;;;;;;11.83;6.83;;;;;;;20.69;100.00;101330.31;5054100;28;20342;-52
2022/10/05 06:03:12;;;;;;;14.23;7.63;;;;;;;20.24;100.00;101322.09;5055399;28;20292;-54
2022/10/05 06:05:44;;;;;;;12.23;7.13;;;;;;;20.37;100.00;101336.38;5061092;28;20348;-54
2022/10/05 06:08:39;;;;;;;12.83;7.50;;;;;;;20.29;100.00;101321.31;5070090;28;20285;-54
2022/10/05 06:11:29;;;;;;;12.00;7.47;;;;;;;20.51;100.00;101326.81;5059923;28;20017;-55
2022/10/05 06:14:05;;;;;;;10.10;5.90;;;;;;;20.46;100.00;101324.84;5050027;28;20366;-53
2022/10/05 06:16:52;;;;;;;9.67;5.37;;;;;;;20.61;100.00;101334.28;5050924;28;20101;-53
2022/10/05 06:19:22;;;;;;;10.93;6.03;;;;;;;20.61;100.00;101324.22;5053006;28;20300;-53
2022/10/05 06:22:08;;;;;;;9.47;5.43;;;;;;;20.43;100.00;101346.28;5054424;28;20025;-54
2022/10/05 06:24:50;;;;;;;11.20;5.93;;;;;;;20.49;100.00;101340.63;5046850;28;20279;-56
2022/10/05 06:27:35;;;;;;;13.60;6.17;;;;;;;20.63;100.00;101338.38;5050083;28;20283;-53
2022/10/05 06:30:05;;;;;;;10.60;5.20;;;;;;;20.72;100.00;101336.06;5050890;28;20517;-56
2022/10/05 06:32:55;;;;;;;9.23;5.23;;;;;;;20.49;100.00;101337.91;5060815;28;20335;-53
2022/10/05 06:35:58;;;;;;;10.80;4.87;;;;;;;20.58;100.00;101340.22;5058314;28;20048;-55
2022/10/05 06:39:07;;;;;;;6.73;4.37;;;;;;;20.68;100.00;101334.09;5055199;28;20278;-56
2022/10/05 06:41:49;;;;;;;11.97;5.40;;;;;;;20.93;100.00;101330.91;5054507;28;20294;-54
2022/10/05 06:44:32;;;;;;;10.03;4.87;;;;;;;20.73;100.00;101332.25;5056344;28;20288;-54
2022/10/05 06:47:48;;;;;;;7.47;4.67;;;;;;;21.40;100.00;101331.41;5048665;28;20301;-52
2022/10/05 06:50:42;;;;;;;8.50;4.57;;;;;;;21.56;100.00;101338.66;5056226;28;20293;-54
2022/10/05 06:53:45;;;;;;;7.57;4.00;;;;;;;21.39;100.00;101351.53;4963990;28;20278;-54
2022/10/05 06:56:51;;;;;;;9.80;4.57;;;;;;;21.51;100.00;101341.34;4965523;29;20294;-53
2022/10/05 06:59:41;;;;;;;8.07;4.43;;;;;;;21.41;100.00;101339.34;4959010;28;20289;-52
2022/10/05 07:02:28;;;;;;;9.00;4.23;;;;;;;21.37;100.00;101340.09;4963705;29;20338;-54
2022/10/05 07:05:22;;;;;;;8.68;4.45;;;;;;;21.44;100.00;101346.16;4982679;28;20039;-54
2022/10/05 07:08:03;;;;;;;11.97;4.17;;;;;;;21.65;100.00;101341.78;4962746;29;20035;-52
2022/10/05 07:10:49;;;;;;;8.00;4.13;;;;;;;21.47;100.00;101334.78;4964167;29;20045;-55
2022/10/05 07:13:42;;;;;;;10.32;4.57;;;;;;;21.11;100.00;101339.81;4984960;28;20031;-51
2022/10/05 07:16:58;;;;;;;12.33;5.20;;;;;;;21.42;100.00;101349.13;4961776;28;20062;-54
2022/10/05 07:19:45;;;;;;;9.63;4.80;;;;;;;21.31;100.00;101340.03;4966051;29;20336;-56
2022/10/05 07:22:35;;;;;;;9.47;4.53;;;;;;;21.05;100.00;101342.47;4963090;29;20035;-56
2022/10/05 07:25:11;;;;;;;9.63;4.27;;;;;;;21.02;100.00;101356.59;4986138;28;20276;-55
2022/10/05 07:27:53;;;;;;;8.33;4.50;;;;;;;20.66;100.00;101353.38;4968722;28;20315;-54
2022/10/05 07:30:20;;;;;;;7.50;4.70;;;;;;;21.27;100.00;101351.69;4966806;29;20047;-53
2022/10/05 07:32:49;;;;;;;8.68;4.93;;;;;;;21.53;100.00;101354.66;4965454;29;20083;-54
2022/10/05 07:39:03;;;;;;;9.53;4.43;;;;;;;21.11;100.00;101353.41;4965989;28;20046;-53
2022/10/05 07:41:43;;;;;;;7.47;4.33;;;;;;;21.09;100.00;101353.66;4967349;28;20123;-54
2022/10/05 07:44:18;;;;;;;11.10;4.90;;;;;;;21.13;100.00;101351.25;4989080;28;20027;-55
2022/10/05 07:46:54;;;;;;;8.73;4.93;;;;;;;21.13;100.00;101357.53;4962892;29;20038;-53
2022/10/05 07:50:01;;;;;;;9.27;4.80;;;;;;;21.44;100.00;101346.97;4967178;29;20276;-54
2022/10/05 07:52:37;;;;;;;13.43;4.90;;;;;;;21.74;100.00;101356.53;5003987;28;20050;-53
2022/10/05 07:55:21;;;;;;;9.33;5.43;;;;;;;21.58;100.00;101346.56;5050140;28;20033;-55
2022/10/05 07:58:01;;;;;;;12.40;4.30;;;;;;;21.63;100.00;101344.69;5047908;28;20022;-56
2022/10/05 08:00:42;;;;;;;8.03;4.30;;;;;;;21.40;100.00;101350.47;5046196;28;20461;-54
2022/10/05 08:03:16;;;;;;;7.77;4.20;;;;;;;21.61;100.00;101352.31;5050269;28;20101;-55
2022/10/05 08:05:45;;;;;;;7.83;4.63;;;;;;;21.75;100.00;101344.56;5049668;28;20085;-55
2022/10/05 08:08:20;;;;;;;12.77;5.50;;;;;;;21.48;100.00;101339.94;5042917;28;20064;-54
2022/10/05 08:11:00;;;;;;;9.07;3.60;;;;;;;21.27;100.00;101330.75;5048271;28;20025;-51
2022/10/05 08:13:41;;;;;;;6.20;3.70;;;;;;;21.75;100.00;101336.41;5045594;28;20036;-55
2022/10/05 08:16:13;;;;;;;8.20;3.97;;;;;;;21.58;100.00;101338.41;5046587;28;20041;-56
2022/10/05 08:18:54;;;;;;;8.50;3.33;;;;;;;21.52;100.00;101334.81;5046824;28;20068;-53
2022/10/05 08:21:26;;;;;;;5.47;2.90;;;;;;;21.54;100.00;101335.38;5050009;28;20026;-56
2022/10/05 08:24:04;;;;;;;7.13;2.83;;;;;;;22.23;100.00;101341.13;5045950;28;20045;-56
2022/10/05 08:26:44;;;;;;;6.63;2.87;;;;;;;22.04;100.00;101332.56;5046348;28;20084;-56
2022/10/05 08:29:31;;;;;;;4.17;2.50;;;;;;;21.52;100.00;101328.53;5048432;28;20036;-55
2022/10/05 08:32:03;;;;;;;4.82;3.30;;;;;;;21.58;100.00;101324.81;5045210;28;20101;-55
2022/10/05 08:34:44;;;;;;;9.70;2.43;;;;;;;21.66;100.00;101328.97;5048607;28;20041;-53
2022/10/05 08:37:19;;;;;;;6.13;3.60;;;;;;;21.53;100.00;101322.00;5046598;28;20029;-54
2022/10/05 08:39:52;;;;;;;9.53;4.20;;;;;;;21.35;100.00;101324.84;5045612;28;20048;-52
2022/10/05 08:42:52;;;;;;;6.83;3.87;;;;;;;22.02;100.00;101326.56;5045076;28;20037;-52
2022/10/05 08:45:30;;;;;;;8.27;3.47;;;;;;;21.58;100.00;101324.81;5050377;28;20026;-57
2022/10/05 08:47:59;;;;;;;5.40;3.53;;;;;;;21.59;100.00;101319.09;5049959;28;20097;-55
2022/10/05 08:50:42;;;;;;;6.47;3.40;;;;;;;21.62;100.00;101325.94;5050038;28;20144;-53
2022/10/05 08:53:42;;;;;;;8.43;3.00;;;;;;;22.19;100.00;101310.06;4972773;28;20052;-55
2022/10/05 08:56:45;;;;;;;7.00;3.57;;;;;;;22.29;100.00;101322.91;4953537;28;20035;-55
2022/10/05 08:59:34;;;;;;;7.67;3.23;;;;;;;22.28;100.00;101321.28;4965104;28;20057;-54
2022/10/05 09:02:43;;;;;;;6.87;2.97;;;;;;;22.42;100.00;101325.19;4964177;28;20033;-54
2022/10/05 09:05:08;;;;;;;;;;;;;;;22.59;100.00;101322.31;4949838;28;20093;-56
2022/10/05 09:08:08;;;;;;;12.20;3.00;;;;;;;22.87;100.00;101306.59;4951749;28;19919;-54
2022/10/05 09:11:19;;;;;;;7.10;3.10;;;;;;;22.48;100.00;101305.06;4961127;28;20029;-54
2022/10/05 09:14:16;;;;;;;8.67;3.23;;;;;;;22.65;100.00;101304.06;4968371;28;20053;-53
2022/10/05 09:16:48;;;;;;;9.00;4.05;;;;;;;22.58;100.00;101315.22;4933930;28;20095;-54
2022/10/05 09:19:34;;;;;;;9.83;3.90;;;;;;;22.39;100.00;101303.91;4959991;28;20047;-51
2022/10/05 09:22:14;;;;;;;9.97;3.50;;;;;;;22.81;100.00;101296.78;4959718;28;20032;-54
2022/10/05 09:25:18;;;;;;;8.20;3.97;;;;;;;22.60;100.00;101296.69;4976561;28;20093;-54
2022/10/05 09:28:06;;;;;;;8.10;4.17;;;;;;;22.82;100.00;101303.88;4958833;28;20032;-52
2022/10/05 09:31:08;;;;;;;10.93;4.20;;;;;;;22.67;100.00;101301.91;4958988;28;20039;-53
2022/10/05 09:34:14;;;;;;;8.47;4.17;;;;;;;22.76;100.00;101307.66;4949617;28;20099;-51
2022/10/05 09:37:37;;;;;;;10.13;3.97;;;;;;;22.90;100.00;101297.06;4951064;28;20036;-55
2022/10/05 09:40:30;;;;;;;10.03;4.67;;;;;;;23.14;100.00;101307.50;5010876;28;20113;-52
2022/10/05 09:43:04;;;;;;;9.03;4.10;;;;;;;22.85;100.00;101291.63;5013155;28;20041;-52
2022/10/05 09:46:08;;;;;;;8.27;3.70;;;;;;;22.56;100.00;101301.03;4961295;28;20103;-54
2022/10/05 09:49:00;;;;;;;16.37;4.30;;;;;;;22.51;100.00;101281.09;4955834;28;20046;-55
2022/10/05 09:51:53;;;;;;;8.23;3.73;;;;;;;23.04;100.00;101279.09;4986789;28;20040;-53
2022/10/05 09:55:04;;;;;;;8.90;4.00;;;;;;;22.94;100.00;101280.97;5007956;28;20037;-54
2022/10/05 09:57:58;;;;;;;11.47;4.20;;;;;;;22.89;100.00;101270.91;4988478;28;20089;-54
2022/10/05 10:00:35;;;;;;;23.73;4.40;;;;;;;22.90;100.00;101265.16;4986969;28;20043;-54
2022/10/05 10:03:38;;;;;;;6.80;4.00;;;;;;;22.57;100.00;101263.69;4991958;28;20096;-55
2022/10/05 10:06:19;;;;;;;8.20;3.63;;;;;;;22.90;100.00;101256.97;4988886;28;20053;-55
2022/10/05 10:09:02;;;;;;;9.37;3.93;;;;;;;22.77;100.00;101258.31;4991457;28;20038;-53
2022/10/05 10:11:47;;;;;;;6.40;3.40;;;;;;;23.02;100.00;101259.47;4989810;28;20026;-57
2022/10/05 10:14:30;;;;;;;10.30;4.13;;;;;;;23.68;100.00;101253.53;4999865;28;20034;-55
2022/10/05 10:17:07;;;;;;;7.97;4.43;;;;;;;24.00;100.00;101252.41;5018217;28;20064;-56
2022/10/05 10:20:00;;;;;;;8.17;4.03;;;;;;;23.38;100.00;101255.19;4995105;28;20050;-53
2022/10/05 10:22:47;;;;;;;7.10;3.43;;;;;;;23.13;100.00;101243.94;4989698;28;20064;-53
2022/10/05 10:25:26;;;;;;;7.47;3.72;;;;;;;23.36;100.00;101247.25;4997504;28;20069;-55
2022/10/05 10:28:12;;;;;;;7.33;4.07;;;;;;;23.58;100.00;101247.00;4992445;28;20043;-53
2022/10/05 10:31:02;;;;;;;8.90;4.03;;;;;;;23.12;100.00;101247.75;5000221;28;20065;-53
2022/10/05 10:34:04;;;;;;;8.53;4.73;;;;;;;23.37;100.00;101253.56;4991018;28;20031;-51
2022/10/05 10:36:49;;;;;;;10.50;3.97;;;;;;;23.67;100.00;101241.81;4991956;28;20071;-53
2022/10/05 10:39:35;;;;;;;7.90;4.33;;;;;;;23.50;100.00;101258.44;4987959;28;20039;-54
2022/10/05 10:42:06;;;;;;;8.20;3.80;;;;;;;23.84;100.00;101240.69;4993076;28;20031;-54
2022/10/05 10:44:35;;;;;;;7.97;4.40;;;;;;;23.88;100.00;101242.59;4989125;28;20035;-55
2022/10/05 10:47:26;;;;;;;10.00;4.23;;;;;;;23.78;100.00;101239.91;5001542;28;20098;-53
2022/10/05 10:50:38;;;;;;;8.07;3.87;;;;;;;23.53;100.00;101236.09;5003215;28;20098;-53
2022/10/05 10:53:19;;;;;;;13.03;4.30;;;;;;;23.40;100.00;101225.72;5056372;28;20069;-55
2022/10/05 10:56:04;;;;;;;8.03;3.67;;;;;;;23.25;100.00;101230.06;5059237;28;20036;-53
2022/10/05 10:58:48;;;;;;;5.40;3.50;;;;;;;23.31;100.00;101231.72;5065339;28;20059;-52
2022/10/05 11:01:33;;;;;;;5.13;3.50;;;;;;;23.59;100.00;101231.44;5054243;28;20037;-50
2022/10/05 11:04:32;;;;;;;14.03;4.10;;;;;;;23.30;100.00;101231.97;5057368;28;20041;-53
2022/10/05 11:07:22;;;;;;;8.50;3.90;;;;;;;23.67;100.00;101219.16;5057343;28;20131;-52
2022/10/05 11:10:00;;;;;;;6.53;3.50;;;;;;;23.62;100.00;101219.97;5057242;28;20030;-52
2022/10/05 11:12:31;;;;;;;10.70;3.83;;;;;;;23.72;100.00;101213.66;5060083;28;20037;-54
2022/10/05 11:15:25;;;;;;;8.70;4.00;;;;;;;24.15;100.00;101224.28;5065709;28;20047;-53
2022/10/05 11:18:16;;;;;;;6.17;3.10;;;;;;;23.81;100.00;101219.38;5060535;28;20067;-52
2022/10/05 11:20:48;;;;;;;7.53;2.97;;;;;;;24.58;100.00;101210.13;5056057;28;20025;-53
2022/10/05 11:23:48;;;;;;;4.07;2.40;;;;;;;24.33;100.00;101209.16;5063058;28;20044;-53
2022/10/05 11:26:38;;;;;;;7.63;2.73;;;;;;;24.75;100.00;101207.91;5061861;28;20124;-50
2022/10/05 11:30:00;;;;;;;4.23;2.20;;;;;;;24.81;100.00;101202.38;5060193;28;20036;-53
2022/10/05 11:32:44;;;;;;;5.60;2.83;;;;;;;24.38;100.00;101206.41;4987097;28;20090;-56
2022/10/05 11:35:31;;;;;;;5.30;1.87;;;;;;;24.65;100.00;101193.44;5065689;28;20033;-52
2022/10/05 11:38:27;;;;;;;6.90;2.63;;;;;;;24.83;100.00;101202.91;5057944;28;20093;-55
2022/10/05 11:41:22;;;;;;;11.13;2.53;;;;;;;25.01;100.00;101191.31;5061609;28;20100;-54
2022/10/05 11:44:04;;;;;;;5.37;2.43;;;;;;;25.62;100.00;101186.44;5055519;28;20058;-55
2022/10/05 11:46:47;;;;;;;8.03;2.23;;;;;;;24.97;100.00;101190.25;5050818;28;20028;-54
2022/10/05 11:49:24;;;;;;;5.97;2.03;;;;;;;25.32;100.00;101177.38;5064428;28;20051;-53
2022/10/05 11:51:53;;;;;;;6.03;2.28;;;;;;;24.50;100.00;101186.94;5034880;28;20050;-52
2022/10/05 11:54:41;;;;;;;4.90;1.90;;;;;;;25.97;100.00;101174.56;4993712;28;20160;-54
2022/10/05 11:57:14;;;;;;;6.20;2.57;;;;;;;25.08;100.00;101176.47;4992990;28;20046;-54
2022/10/05 11:59:54;;;;;;;7.23;2.03;;;;;;;24.88;100.00;101159.13;4992047;28;20054;-53
2022/10/05 12:02:55;;;;;;;2.50;1.83;;;;;;;25.28;100.00;101165.38;4991528;28;20057;-54
2022/10/05 12:05:23;;;;;;;6.07;2.20;;;;;;;27.48;98.29;101174.84;4993489;28;20038;-52
2022/10/05 12:08:06;;;;;;;3.37;1.60;;;;;;;27.07;95.62;101202.19;4992050;28;20068;-57
2022/10/05 12:10:51;;;;;;;3.87;1.90;;;;;;;27.12;97.63;101170.00;5012548;28;20352;-55
2022/10/05 12:13:53;;;;;;;7.67;2.10;;;;;;;27.23;95.17;101175.28;4992360;28;20050;-56
2022/10/05 12:16:25;;;;;;;7.30;2.10;;;;;;;27.69;96.05;101165.47;5011651;28;20047;-55
2022/10/05 12:19:17;;;;;;;5.03;2.20;;;;;;;27.30;94.52;101178.47;4991063;28;20034;-55
2022/10/05 12:21:54;;;;;;;7.90;2.27;;;;;;;26.52;99.51;101156.88;4996642;28;20070;-55
2022/10/05 12:24:53;;;;;;;5.57;2.27;;;;;;;26.65;96.94;101147.91;5001464;28;20027;-54
2022/10/05 12:27:26;;;;;;;32.33;2.87;;;;;;;27.51;93.89;101165.22;4986304;28;20076;-56
2022/10/05 12:30:02;;;;;;;5.30;2.30;;;;;;;27.90;91.81;101160.34;5002680;28;20038;-56
2022/10/05 12:32:54;;;;;;;;;;;;;;;27.85;91.00;101141.22;5007259;28;20202;-53